sensor_id;sensor_type;location;lat;lon;timestamp;pressure;altitude;pressure_sealevel;temperature;humidity
72612;BME280;60655;52.182;4.474;2024-02-14T00:02:00;101057.13;;;8.71;100.00
72612;BME280;60655;52.182;4.474;2024-02-14T00:04:01;101055.72;;;8.75;100.00
72612;BME280;60655;52.182;4.474;2024-02-14T00:06:04;101046.97;;;8.74;100.00
72612;BME280;60655;52.182;4.474;2024-02-14T00:08:06;101046.75;;;8.76;100.00
72612;BME280;60655;52.182;4.474;2024-02-14T00:10:08;101046.16;;;8.80;100.00
72612;BME280;60655;52.182;4.474;2024-02-14T00:12:10;101041.03;;;8.72;100.00
72612;BME280;60655;52.182;4.474;2024-02-14T00:14:12;101038.41;;;8.79;100.00
72612;BME280;60655;52.182;4.474;2024-02-14T00:16:13;101044.53;;;8.79;100.00
72612;BME280;60655;52.182;4.474;2024-02-14T00:18:14;101043.13;;;8.84;100.00
72612;BME280;60655;52.182;4.474;2024-02-14T00:20:16;101041.09;;;8.86;100.00
72612;BME280;60655;52.182;4.474;2024-02-14T00:22:17;101048.66;;;8.89;100.00
72612;BME280;60655;52.182;4.474;2024-02-14T00:24:18;101036.63;;;8.86;100.00
72612;BME280;60655;52.182;4.474;2024-02-14T00:26:19;101047.44;;;8.91;100.00
72612;BME280;60655;52.182;4.474;2024-02-14T00:28:20;101032.16;;;8.93;100.00
72612;BME280;60655;52.182;4.474;2024-02-14T00:30:20;101045.41;;;9.00;100.00
72612;BME280;60655;52.182;4.474;2024-02-14T00:32:23;101038.03;;;8.95;100.00
72612;BME280;60655;52.182;4.474;2024-02-14T00:34:24;101044.19;;;9.02;100.00
72612;BME280;60655;52.182;4.474;2024-02-14T00:36:25;101040.91;;;9.00;100.00
72612;BME280;60655;52.182;4.474;2024-02-14T00:38:26;101033.97;;;8.99;100.00
72612;BME280;60655;52.182;4.474;2024-02-14T00:40:27;101034.03;;;9.12;100.00
72612;BME280;60655;52.182;4.474;2024-02-14T00:42:28;101029.53;;;9.13;100.00
72612;BME280;60655;52.182;4.474;2024-02-14T00:44:29;101026.91;;;9.20;100.00
72612;BME280;60655;52.182;4.474;2024-02-14T00:46:29;101034.84;;;9.13;100.00
72612;BME280;60655;52.182;4.474;2024-02-14T00:48:31;101037.91;;;9.17;100.00
72612;BME280;60655;52.182;4.474;2024-02-14T00:50:32;101035.88;;;9.19;100.00
72612;BME280;60655;52.182;4.474;2024-02-14T00:52:34;101043.22;;;9.23;100.00
72612;BME280;60655;52.182;4.474;2024-02-14T00:54:35;101045.03;;;9.29;100.00
72612;BME280;60655;52.182;4.474;2024-02-14T00:56:35;101042.59;;;9.28;100.00
72612;BME280;60655;52.182;4.474;2024-02-14T00:58:36;101031.19;;;9.34;100.00
72612;BME280;60655;52.182;4.474;2024-02-14T01:00:37;101043.22;;;9.36;100.00
72612;BME280;60655;52.182;4.474;2024-02-14T01:02:38;101040.16;;;9.39;100.00
72612;BME280;60655;52.182;4.474;2024-02-14T01:04:39;101031.81;;;9.42;100.00
72612;BME280;60655;52.182;4.474;2024-02-14T01:06:40;101021.00;;;9.37;100.00
72612;BME280;60655;52.182;4.474;2024-02-14T01:08:41;101038.94;;;9.48;100.00
72612;BME280;60655;52.182;4.474;2024-02-14T01:10:42;101046.91;;;9.48;100.00
72612;BME280;60655;52.182;4.474;2024-02-14T01:12:43;101048.13;;;9.53;100.00
72612;BME280;60655;52.182;4.474;2024-02-14T01:14:44;101054.84;;;9.55;100.00
72612;BME280;60655;52.182;4.474;2024-02-14T01:16:45;101056.47;;;9.56;100.00
72612;BME280;60655;52.182;4.474;2024-02-14T01:18:46;101058.09;;;9.57;100.00
72612;BME280;60655;52.182;4.474;2024-02-14T01:20:47;101045.06;;;9.62;100.00
72612;BME280;60655;52.182;4.474;2024-02-14T01:22:48;101047.72;;;9.62;100.00
72612;BME280;60655;52.182;4.474;2024-02-14T01:24:49;101060.16;;;9.68;100.00
72612;BME280;60655;52.182;4.474;2024-02-14T01:26:50;101055.47;;;9.70;100.00
72612;BME280;60655;52.182;4.474;2024-02-14T01:28:51;101056.91;;;9.73;100.00
72612;BME280;60655;52.182;4.474;2024-02-14T01:30:52;101054.44;;;9.78;100.00
72612;BME280;60655;52.182;4.474;2024-02-14T01:32:53;101058.94;;;9.77;100.00
72612;BME280;60655;52.182;4.474;2024-02-14T01:34:54;101060.94;;;9.82;100.00
72612;BME280;60655;52.182;4.474;2024-02-14T01:36:55;101045.88;;;9.76;100.00
72612;BME280;60655;52.182;4.474;2024-02-14T01:38:56;101064.84;;;9.86;100.00
72612;BME280;60655;52.182;4.474;2024-02-14T01:40:57;101065.44;;;9.88;100.00
72612;BME280;60655;52.182;4.474;2024-02-14T01:42:58;101067.06;;;9.89;100.00
72612;BME280;60655;52.182;4.474;2024-02-14T01:44:59;101070.34;;;9.91;100.00
72612;BME280;60655;52.182;4.474;2024-02-14T01:47:00;101063.00;;;9.93;100.00
72612;BME280;60655;52.182;4.474;2024-02-14T01:49:01;101063.41;;;9.90;100.00
72612;BME280;60655;52.182;4.474;2024-02-14T01:51:04;101064.63;;;9.94;100.00
72612;BME280;60655;52.182;4.474;2024-02-14T01:53:08;101064.22;;;9.97;100.00
72612;BME280;60655;52.182;4.474;2024-02-14T01:55:09;101058.50;;;9.94;100.00
72612;BME280;60655;52.182;4.474;2024-02-14T01:57:10;101066.88;;;9.97;100.00
72612;BME280;60655;52.182;4.474;2024-02-14T01:59:13;101056.88;;;9.99;100.00
72612;BME280;60655;52.182;4.474;2024-02-14T02:01:14;101067.69;;;9.98;100.00
72612;BME280;60655;52.182;4.474;2024-02-14T02:03:15;101074.03;;;9.97;100.00
72612;BME280;60655;52.182;4.474;2024-02-14T02:05:16;101071.38;;;9.97;100.00
72612;BME280;60655;52.182;4.474;2024-02-14T02:07:18;101061.38;;;9.92;100.00
72612;BME280;60655;52.182;4.474;2024-02-14T02:09:20;101066.88;;;9.97;100.00
72612;BME280;60655;52.182;4.474;2024-02-14T02:11:21;101072.78;;;9.99;100.00
72612;BME280;60655;52.182;4.474;2024-02-14T02:13:23;101080.13;;;10.04;100.00
72612;BME280;60655;52.182;4.474;2024-02-14T02:15:23;101070.53;;;10.03;100.00
72612;BME280;60655;52.182;4.474;2024-02-14T02:17:24;101069.13;;;10.00;100.00
72612;BME280;60655;52.182;4.474;2024-02-14T02:19:26;101067.06;;;9.96;100.00
72612;BME280;60655;52.182;4.474;2024-02-14T02:21:27;101081.78;;;10.05;100.00
72612;BME280;60655;52.182;4.474;2024-02-14T02:23:28;101087.69;;;10.07;100.00
72612;BME280;60655;52.182;4.474;2024-02-14T02:25:29;101068.72;;;10.03;100.00
72612;BME280;60655;52.182;4.474;2024-02-14T02:27:30;101075.03;;;10.02;100.00
72612;BME280;60655;52.182;4.474;2024-02-14T02:29:31;101094.84;;;10.06;100.00
72612;BME280;60655;52.182;4.474;2024-02-14T02:31:33;101092.81;;;10.08;100.00
72612;BME280;60655;52.182;4.474;2024-02-14T02:33:34;101083.81;;;10.03;100.00
72612;BME280;60655;52.182;4.474;2024-02-14T02:35:35;101096.47;;;10.07;100.00
72612;BME280;60655;52.182;4.474;2024-02-14T02:37:36;101090.16;;;10.08;100.00
72612;BME280;60655;52.182;4.474;2024-02-14T02:39:37;101090.34;;;10.07;100.00
72612;BME280;60655;52.182;4.474;2024-02-14T02:41:38;101101.38;;;10.10;100.00
72612;BME280;60655;52.182;4.474;2024-02-14T02:43:39;101105.06;;;10.09;100.00
72612;BME280;60655;52.182;4.474;2024-02-14T02:45:40;101092.34;;;10.11;100.00
72612;BME280;60655;52.182;4.474;2024-02-14T02:47:41;101106.25;;;10.13;100.00
72612;BME280;60655;52.182;4.474;2024-02-14T02:49:43;101084.84;;;10.08;100.00
72612;BME280;60655;52.182;4.474;2024-02-14T02:51:44;101104.81;;;10.18;100.00
72612;BME280;60655;52.182;4.474;2024-02-14T02:53:46;101076.25;;;10.00;100.00
72612;BME280;60655;52.182;4.474;2024-02-14T02:55:47;101083.81;;;10.09;100.00
72612;BME280;60655;52.182;4.474;2024-02-14T02:57:48;101101.53;;;10.15;100.00
72612;BME280;60655;52.182;4.474;2024-02-14T02:59:49;101097.66;;;10.11;100.00
72612;BME280;60655;52.182;4.474;2024-02-14T03:01:50;101106.66;;;10.17;100.00
72612;BME280;60655;52.182;4.474;2024-02-14T03:03:51;101104.00;;;10.17;100.00
72612;BME280;60655;52.182;4.474;2024-02-14T03:05:52;101104.63;;;10.19;100.00
72612;BME280;60655;52.182;4.474;2024-02-14T03:07:54;101110.75;;;10.26;100.00
72612;BME280;60655;52.182;4.474;2024-02-14T03:09:58;101103.41;;;10.22;100.00
72612;BME280;60655;52.182;4.474;2024-02-14T03:11:59;101111.16;;;10.23;100.00
72612;BME280;60655;52.182;4.474;2024-02-14T03:14:00;101116.69;;;10.28;100.00
72612;BME280;60655;52.182;4.474;2024-02-14T03:16:01;101111.56;;;10.27;100.00
72612;BME280;60655;52.182;4.474;2024-02-14T03:18:02;101119.94;;;10.30;100.00
72612;BME280;60655;52.182;4.474;2024-02-14T03:20:09;101122.59;;;10.30;100.00
72612;BME280;60655;52.182;4.474;2024-02-14T03:22:12;101126.06;;;10.31;100.00
72612;BME280;60655;52.182;4.474;2024-02-14T03:24:13;101123.84;;;10.28;100.00
72612;BME280;60655;52.182;4.474;2024-02-14T03:26:15;101125.25;;;10.30;100.00
72612;BME280;60655;52.182;4.474;2024-02-14T03:28:16;101127.31;;;10.28;100.00
72612;BME280;60655;52.182;4.474;2024-02-14T03:30:17;101124.84;;;10.33;100.00
72612;BME280;60655;52.182;4.474;2024-02-14T03:32:17;101135.06;;;10.36;100.00
72612;BME280;60655;52.182;4.474;2024-02-14T03:34:18;101132.00;;;10.39;100.00
72612;BME280;60655;52.182;4.474;2024-02-14T03:36:20;101128.06;;;10.42;100.00
72612;BME280;60655;52.182;4.474;2024-02-14T03:38:25;101130.72;;;10.42;100.00
72612;BME280;60655;52.182;4.474;2024-02-14T03:40:27;101121.75;;;10.43;100.00
72612;BME280;60655;52.182;4.474;2024-02-14T03:42:27;101121.13;;;10.41;100.00
72612;BME280;60655;52.182;4.474;2024-02-14T03:44:28;101124.19;;;10.44;100.00
72612;BME280;60655;52.182;4.474;2024-02-14T03:46:29;101130.31;;;10.45;100.00
72612;BME280;60655;52.182;4.474;2024-02-14T03:48:31;101136.44;;;10.45;100.00
72612;BME280;60655;52.182;4.474;2024-02-14T03:50:32;101133.78;;;10.45;100.00
72612;BME280;60655;52.182;4.474;2024-02-14T03:52:33;101124.19;;;10.44;100.00
72612;BME280;60655;52.182;4.474;2024-02-14T03:54:34;101130.72;;;10.48;100.00
72612;BME280;60655;52.182;4.474;2024-02-14T03:56:35;101142.59;;;10.46;100.00
72612;BME280;60655;52.182;4.474;2024-02-14T03:58:38;101131.75;;;10.47;100.00
72612;BME280;60655;52.182;4.474;2024-02-14T04:00:39;101120.50;;;10.45;100.00
72612;BME280;60655;52.182;4.474;2024-02-14T04:02:40;101144.00;;;10.48;100.00
72612;BME280;60655;52.182;4.474;2024-02-14T04:04:41;101137.88;;;10.48;100.00
72612;BME280;60655;52.182;4.474;2024-02-14T04:06:43;101137.25;;;10.46;100.00
72612;BME280;60655;52.182;4.474;2024-02-14T04:08:46;101139.50;;;10.49;100.00
72612;BME280;60655;52.182;4.474;2024-02-14T04:10:47;101140.53;;;10.48;100.00
72612;BME280;60655;52.182;4.474;2024-02-14T04:12:50;101140.94;;;10.45;100.00
72612;BME280;60655;52.182;4.474;2024-02-14T04:14:51;101144.63;;;10.44;100.00
72612;BME280;60655;52.182;4.474;2024-02-14T04:16:52;101161.78;;;10.48;100.00
72612;BME280;60655;52.182;4.474;2024-02-14T04:18:53;101151.16;;;10.48;100.00
72612;BME280;60655;52.182;4.474;2024-02-14T04:20:55;101152.59;;;10.51;100.00
72612;BME280;60655;52.182;4.474;2024-02-14T04:22:57;101152.38;;;10.52;100.00
72612;BME280;60655;52.182;4.474;2024-02-14T04:24:59;101148.28;;;10.56;100.00
72612;BME280;60655;52.182;4.474;2024-02-14T04:27:00;101150.75;;;10.58;100.00
72612;BME280;60655;52.182;4.474;2024-02-14T04:29:03;101151.16;;;10.55;100.00
72612;BME280;60655;52.182;4.474;2024-02-14T04:31:04;101158.31;;;10.54;100.00
72612;BME280;60655;52.182;4.474;2024-02-14T04:33:05;101161.56;;;10.56;100.00
72612;BME280;60655;52.182;4.474;2024-02-14T04:35:07;101164.63;;;10.53;100.00
72612;BME280;60655;52.182;4.474;2024-02-14T04:37:09;101161.78;;;10.55;100.00
72612;BME280;60655;52.182;4.474;2024-02-14T04:39:19;101162.19;;;10.58;100.00
72612;BME280;60655;52.182;4.474;2024-02-14T04:41:20;101168.31;;;10.59;100.00
72612;BME280;60655;52.182;4.474;2024-02-14T04:43:21;101168.31;;;10.59;100.00
72612;BME280;60655;52.182;4.474;2024-02-14T04:45:22;101182.00;;;10.62;100.00
72612;BME280;60655;52.182;4.474;2024-02-14T04:47:23;101170.97;;;10.65;100.00
72612;BME280;60655;52.182;4.474;2024-02-14T04:49:25;101165.03;;;10.63;100.00
72612;BME280;60655;52.182;4.474;2024-02-14T04:51:26;101172.00;;;10.64;100.00
72612;BME280;60655;52.182;4.474;2024-02-14T04:53:28;101187.50;;;10.67;100.00
72612;BME280;60655;52.182;4.474;2024-02-14T04:55:29;101180.78;;;10.65;100.00
72612;BME280;60655;52.182;4.474;2024-02-14T04:57:29;101184.66;;;10.62;100.00
72612;BME280;60655;52.182;4.474;2024-02-14T04:59:31;101182.81;;;10.63;100.00
72612;BME280;60655;52.182;4.474;2024-02-14T05:01:32;101187.09;;;10.64;100.00
72612;BME280;60655;52.182;4.474;2024-02-14T05:03:33;101186.47;;;10.68;100.00
72612;BME280;60655;52.182;4.474;2024-02-14T05:05:34;101187.06;;;10.70;100.00
72612;BME280;60655;52.182;4.474;2024-02-14T05:07:35;101194.22;;;10.70;100.00
72612;BME280;60655;52.182;4.474;2024-02-14T05:09:36;101189.56;;;10.65;100.00
72612;BME280;60655;52.182;4.474;2024-02-14T05:11:37;101195.25;;;10.69;100.00
72612;BME280;60655;52.182;4.474;2024-02-14T05:13:38;101194.88;;;10.65;100.00
72612;BME280;60655;52.182;4.474;2024-02-14T05:15:42;101191.41;;;10.65;100.00
72612;BME280;60655;52.182;4.474;2024-02-14T05:17:44;101206.13;;;10.67;100.00
72612;BME280;60655;52.182;4.474;2024-02-14T05:19:45;101197.50;;;10.72;100.00
72612;BME280;60655;52.182;4.474;2024-02-14T05:21:46;101207.31;;;10.71;100.00
72612;BME280;60655;52.182;4.474;2024-02-14T05:23:47;101194.22;;;10.70;100.00
72612;BME280;60655;52.182;4.474;2024-02-14T05:25:48;101184.25;;;10.65;100.00
72612;BME280;60655;52.182;4.474;2024-02-14T05:27:51;101189.53;;;10.72;100.00
72612;BME280;60655;52.182;4.474;2024-02-14T05:29:52;101197.50;;;10.72;100.00
72612;BME280;60655;52.182;4.474;2024-02-14T05:31:53;101196.06;;;10.76;100.00
72612;BME280;60655;52.182;4.474;2024-02-14T05:33:56;101198.50;;;10.77;100.00
72612;BME280;60655;52.182;4.474;2024-02-14T05:35:57;101201.16;;;10.77;100.00
72612;BME280;60655;52.182;4.474;2024-02-14T05:37:57;101190.75;;;10.76;100.00
72612;BME280;60655;52.182;4.474;2024-02-14T05:39:58;101201.97;;;10.78;100.00
72612;BME280;60655;52.182;4.474;2024-02-14T05:41:59;101196.47;;;10.79;100.00
72612;BME280;60655;52.182;4.474;2024-02-14T05:44:00;101202.81;;;10.78;100.00
72612;BME280;60655;52.182;4.474;2024-02-14T05:46:01;101206.06;;;10.80;100.00
72612;BME280;60655;52.182;4.474;2024-02-14T05:48:02;101213.63;;;10.83;100.00
72612;BME280;60655;52.182;4.474;2024-02-14T05:50:04;101210.34;;;10.81;100.00
72612;BME280;60655;52.182;4.474;2024-02-14T05:52:07;101215.25;;;10.85;100.00
72612;BME280;60655;52.182;4.474;2024-02-14T05:54:08;101205.66;;;10.83;100.00
72612;BME280;60655;52.182;4.474;2024-02-14T05:56:09;101223.22;;;10.85;100.00
72612;BME280;60655;52.182;4.474;2024-02-14T05:58:10;101217.72;;;10.79;100.00
72612;BME280;60655;52.182;4.474;2024-02-14T06:00:11;101217.50;;;10.81;100.00
72612;BME280;60655;52.182;4.474;2024-02-14T06:02:13;101226.72;;;10.85;100.00
72612;BME280;60655;52.182;4.474;2024-02-14T06:04:14;101223.03;;;10.86;100.00
72612;BME280;60655;52.182;4.474;2024-02-14T06:06:15;101221.19;;;10.87;100.00
72612;BME280;60655;52.182;4.474;2024-02-14T06:08:16;101222.00;;;10.87;100.00
72612;BME280;60655;52.182;4.474;2024-02-14T06:10:17;101229.16;;;10.87;100.00
72612;BME280;60655;52.182;4.474;2024-02-14T06:12:18;101226.72;;;10.85;100.00
72612;BME280;60655;52.182;4.474;2024-02-14T06:14:19;101234.28;;;10.88;100.00
72612;BME280;60655;52.182;4.474;2024-02-14T06:16:20;101231.81;;;10.93;100.00
72612;BME280;60655;52.182;4.474;2024-02-14T06:18:21;101233.66;;;10.93;100.00
72612;BME280;60655;52.182;4.474;2024-02-14T06:20:22;101234.06;;;10.96;100.00
72612;BME280;60655;52.182;4.474;2024-02-14T06:22:23;101233.03;;;10.91;100.00
72612;BME280;60655;52.182;4.474;2024-02-14T06:24:24;101240.19;;;10.90;100.00
72612;BME280;60655;52.182;4.474;2024-02-14T06:26:25;101233.66;;;10.93;100.00
72612;BME280;60655;52.182;4.474;2024-02-14T06:28:26;101246.53;;;10.96;100.00
72612;BME280;60655;52.182;4.474;2024-02-14T06:30:28;101233.84;;;10.91;100.00
72612;BME280;60655;52.182;4.474;2024-02-14T06:32:29;101247.75;;;10.93;100.00
72612;BME280;60655;52.182;4.474;2024-02-14T06:34:31;101250.41;;;10.93;100.00
72612;BME280;60655;52.182;4.474;2024-02-14T06:36:32;101252.66;;;10.90;100.00
72612;BME280;60655;52.182;4.474;2024-02-14T06:38:32;101238.56;;;10.89;100.00
72612;BME280;60655;52.182;4.474;2024-02-14T06:40:34;101250.81;;;10.97;100.00
72612;BME280;60655;52.182;4.474;2024-02-14T06:42:35;101253.47;;;10.90;100.00
72612;BME280;60655;52.182;4.474;2024-02-14T06:44:36;101250.00;;;10.96;100.00
72612;BME280;60655;52.182;4.474;2024-02-14T06:46:36;101253.47;;;10.97;100.00
72612;BME280;60655;52.182;4.474;2024-02-14T06:48:38;101253.88;;;10.94;100.00
72612;BME280;60655;52.182;4.474;2024-02-14T06:50:39;101252.88;;;10.95;100.00
72612;BME280;60655;52.182;4.474;2024-02-14T06:52:40;101258.19;;;10.95;100.00
72612;BME280;60655;52.182;4.474;2024-02-14T06:54:41;101257.56;;;10.93;100.00
72612;BME280;60655;52.182;4.474;2024-02-14T06:56:42;101255.53;;;10.95;100.00
72612;BME280;60655;52.182;4.474;2024-02-14T06:58:43;101254.91;;;10.93;100.00
72612;BME280;60655;52.182;4.474;2024-02-14T07:00:44;101267.19;;;10.94;100.00
72612;BME280;60655;52.182;4.474;2024-02-14T07:02:45;101262.69;;;10.94;100.00
72612;BME280;60655;52.182;4.474;2024-02-14T07:04:48;101265.13;;;10.96;100.00
72612;BME280;60655;52.182;4.474;2024-02-14T07:06:49;101271.63;;;11.00;100.00
72612;BME280;60655;52.182;4.474;2024-02-14T07:08:50;101268.38;;;10.98;100.00
72612;BME280;60655;52.182;4.474;2024-02-14T07:10:51;101279.25;;;10.96;100.00
72612;BME280;60655;52.182;4.474;2024-02-14T07:12:52;101260.41;;;10.98;100.00
72612;BME280;60655;52.182;4.474;2024-02-14T07:14:53;101276.59;;;10.96;100.00
72612;BME280;60655;52.182;4.474;2024-02-14T07:16:54;101274.50;;;10.98;100.00
72612;BME280;60655;52.182;4.474;2024-02-14T07:18:55;101276.97;;;11.00;100.00
72612;BME280;60655;52.182;4.474;2024-02-14T07:20:56;101274.09;;;11.01;100.00
72612;BME280;60655;52.182;4.474;2024-02-14T07:22:57;101275.94;;;11.07;100.00
72612;BME280;60655;52.182;4.474;2024-02-14T07:24:58;101275.72;;;11.09;100.00
72612;BME280;60655;52.182;4.474;2024-02-14T07:26:59;101282.66;;;11.10;100.00
72612;BME280;60655;52.182;4.474;2024-02-14T07:29:00;101276.75;;;11.08;100.00
72612;BME280;60655;52.182;4.474;2024-02-14T07:31:04;101283.09;;;11.07;100.00
72612;BME280;60655;52.182;4.474;2024-02-14T07:33:05;101289.63;;;11.11;100.00
72612;BME280;60655;52.182;4.474;2024-02-14T07:35:06;101289.84;;;11.09;100.00
72612;BME280;60655;52.182;4.474;2024-02-14T07:37:07;101289.63;;;11.11;100.00
72612;BME280;60655;52.182;4.474;2024-02-14T07:39:08;101294.53;;;11.14;100.00
72612;BME280;60655;52.182;4.474;2024-02-14T07:41:09;101297.59;;;11.11;100.00
72612;BME280;60655;52.182;4.474;2024-02-14T07:43:10;101290.66;;;11.10;100.00
72612;BME280;60655;52.182;4.474;2024-02-14T07:45:11;101287.56;;;11.13;100.00
72612;BME280;60655;52.182;4.474;2024-02-14T07:47:12;101279.81;;;11.11;100.00
72612;BME280;60655;52.182;4.474;2024-02-14T07:49:13;101297.38;;;11.19;100.00
72612;BME280;60655;52.182;4.474;2024-02-14T07:51:14;101295.75;;;11.11;100.00
72612;BME280;60655;52.182;4.474;2024-02-14T07:53:15;101295.34;;;11.14;100.00
72612;BME280;60655;52.182;4.474;2024-02-14T07:55:16;101296.56;;;11.19;100.00
72612;BME280;60655;52.182;4.474;2024-02-14T07:57:17;101293.91;;;11.25;100.00
72612;BME280;60655;52.182;4.474;2024-02-14T07:59:18;101294.91;;;11.24;100.00
72612;BME280;60655;52.182;4.474;2024-02-14T08:01:19;101297.13;;;11.27;100.00
72612;BME280;60655;52.182;4.474;2024-02-14T08:03:20;101299.78;;;11.27;100.00
72612;BME280;60655;52.182;4.474;2024-02-14T08:05:21;101302.84;;;11.31;100.00
72612;BME280;60655;52.182;4.474;2024-02-14T08:07:22;101299.38;;;11.30;100.00
72612;BME280;60655;52.182;4.474;2024-02-14T08:09:23;101300.19;;;11.31;100.00
72612;BME280;60655;52.182;4.474;2024-02-14T08:11:24;101301.22;;;11.30;100.00
72612;BME280;60655;52.182;4.474;2024-02-14T08:13:25;101298.97;;;11.33;100.00
72612;BME280;60655;52.182;4.474;2024-02-14T08:15:26;101296.31;;;11.33;100.00
72612;BME280;60655;52.182;4.474;2024-02-14T08:17:27;101296.72;;;11.30;100.00
72612;BME280;60655;52.182;4.474;2024-02-14T08:19:28;101297.13;;;11.34;100.00
72612;BME280;60655;52.182;4.474;2024-02-14T08:21:29;101303.47;;;11.33;100.00
72612;BME280;60655;52.182;4.474;2024-02-14T08:23:31;101310.84;;;11.31;100.00
72612;BME280;60655;52.182;4.474;2024-02-14T08:25:32;101301.44;;;11.28;100.00
72612;BME280;60655;52.182;4.474;2024-02-14T08:27:33;101307.19;;;11.25;100.00
72612;BME280;60655;52.182;4.474;2024-02-14T08:29:34;101316.97;;;11.31;100.00
72612;BME280;60655;52.182;4.474;2024-02-14T08:31:35;101314.13;;;11.26;100.00
72612;BME280;60655;52.182;4.474;2024-02-14T08:33:36;101321.28;;;11.32;100.00
72612;BME280;60655;52.182;4.474;2024-02-14T08:35:37;101328.22;;;11.33;100.00
72612;BME280;60655;52.182;4.474;2024-02-14T08:37:38;101323.31;;;11.30;100.00
72612;BME280;60655;52.182;4.474;2024-02-14T08:39:41;101313.34;;;11.26;100.00
72612;BME280;60655;52.182;4.474;2024-02-14T08:41:44;101308.22;;;11.24;100.00
72612;BME280;60655;52.182;4.474;2024-02-14T08:43:45;101317.59;;;11.27;100.00
72612;BME280;60655;52.182;4.474;2024-02-14T08:45:46;101325.38;;;11.28;100.00
72612;BME280;60655;52.182;4.474;2024-02-14T08:47:47;101325.00;;;11.25;100.00
72612;BME280;60655;52.182;4.474;2024-02-14T08:49:48;101325.56;;;11.27;100.00
72612;BME280;60655;52.182;4.474;2024-02-14T08:51:49;101323.56;;;11.22;100.00
72612;BME280;60655;52.182;4.474;2024-02-14T08:53:50;101324.81;;;11.13;100.00
72612;BME280;60655;52.182;4.474;2024-02-14T08:55:55;101343.81;;;11.23;100.00
72612;BME280;60655;52.182;4.474;2024-02-14T08:57:56;101331.97;;;11.19;100.00
72612;BME280;60655;52.182;4.474;2024-02-14T08:59:57;101341.97;;;11.17;100.00
72612;BME280;60655;52.182;4.474;2024-02-14T09:01:58;101346.06;;;11.20;100.00
72612;BME280;60655;52.182;4.474;2024-02-14T09:03:59;101340.75;;;11.20;100.00
72612;BME280;60655;52.182;4.474;2024-02-14T09:06:00;101338.28;;;11.18;100.00
72612;BME280;60655;52.182;4.474;2024-02-14T09:08:01;101335.44;;;11.20;100.00
72612;BME280;60655;52.182;4.474;2024-02-14T09:10:02;101337.28;;;11.19;100.00
72612;BME280;60655;52.182;4.474;2024-02-14T09:12:04;101336.66;;;11.24;100.00
72612;BME280;60655;52.182;4.474;2024-02-14T09:14:05;101343.81;;;11.23;100.00
72612;BME280;60655;52.182;4.474;2024-02-14T09:16:10;101339.31;;;11.24;100.00
72612;BME280;60655;52.182;4.474;2024-02-14T09:18:11;101338.72;;;11.22;100.00
72612;BME280;60655;52.182;4.474;2024-02-14T09:20:12;101340.53;;;11.21;100.00
72612;BME280;60655;52.182;4.474;2024-02-14T09:22:14;101337.47;;;11.24;100.00
72612;BME280;60655;52.182;4.474;2024-02-14T09:24:21;101339.47;;;11.29;100.00
72612;BME280;60655;52.182;4.474;2024-02-14T09:26:22;101334.16;;;11.29;100.00
72612;BME280;60655;52.182;4.474;2024-02-14T09:28:23;101339.88;;;11.32;100.00
72612;BME280;60655;52.182;4.474;2024-02-14T09:30:25;101339.69;;;11.27;100.00
72612;BME280;60655;52.182;4.474;2024-02-14T09:32:27;101347.66;;;11.27;100.00
72612;BME280;60655;52.182;4.474;2024-02-14T09:34:29;101342.16;;;11.29;100.00
72612;BME280;60655;52.182;4.474;2024-02-14T09:36:30;101332.97;;;11.18;100.00
72612;BME280;60655;52.182;4.474;2024-02-14T09:38:31;101336.66;;;11.24;100.00
72612;BME280;60655;52.182;4.474;2024-02-14T09:40:35;101340.53;;;11.21;100.00
72612;BME280;60655;52.182;4.474;2024-02-14T09:42:44;101343.81;;;11.23;100.00
72612;BME280;60655;52.182;4.474;2024-02-14T09:44:48;101346.47;;;11.23;100.00
72612;BME280;60655;52.182;4.474;2024-02-14T09:46:53;101349.09;;;11.30;100.00
72612;BME280;60655;52.182;4.474;2024-02-14T09:48:54;101333.56;;;11.27;100.00
72612;BME280;60655;52.182;4.474;2024-02-14T09:50:56;101332.72;;;11.26;100.00
72612;BME280;60655;52.182;4.474;2024-02-14T09:52:58;101336.00;;;11.28;100.00
72612;BME280;60655;52.182;4.474;2024-02-14T09:55:00;101338.03;;;11.33;100.00
72612;BME280;60655;52.182;4.474;2024-02-14T09:57:03;101341.94;;;11.30;100.00
72612;BME280;60655;52.182;4.474;2024-02-14T09:59:05;101351.75;;;11.36;100.00
72612;BME280;60655;52.182;4.474;2024-02-14T10:01:07;101355.44;;;11.35;100.00
72612;BME280;60655;52.182;4.474;2024-02-14T10:03:08;101348.69;;;11.39;100.00
72612;BME280;60655;52.182;4.474;2024-02-14T10:05:09;101346.84;;;11.40;100.00
72612;BME280;60655;52.182;4.474;2024-02-14T10:07:10;101347.44;;;11.42;100.00
72612;BME280;60655;52.182;4.474;2024-02-14T10:09:11;101358.50;;;11.45;100.00
72612;BME280;60655;52.182;4.474;2024-02-14T10:11:12;101358.50;;;11.39;100.00
72612;BME280;60655;52.182;4.474;2024-02-14T10:13:15;101360.75;;;11.42;100.00
72612;BME280;60655;52.182;4.474;2024-02-14T10:15:16;101364.41;;;11.47;100.00
72612;BME280;60655;52.182;4.474;2024-02-14T10:17:18;101358.06;;;11.48;100.00
72612;BME280;60655;52.182;4.474;2024-02-14T10:19:19;101366.06;;;11.48;100.00
72612;BME280;60655;52.182;4.474;2024-02-14T10:21:20;101360.75;;;11.48;100.00
72612;BME280;60655;52.182;4.474;2024-02-14T10:23:22;101371.94;;;11.57;100.00
72612;BME280;60655;52.182;4.474;2024-02-14T10:25:23;101361.13;;;11.52;100.00
72612;BME280;60655;52.182;4.474;2024-02-14T10:27:25;101359.50;;;11.51;100.00
72612;BME280;60655;52.182;4.474;2024-02-14T10:29:27;101358.28;;;11.54;100.00